Time;durP1;ratioP1;P1;durP2;ratioP2;P2;SDS_P1;SDS_P2;PMS_P1;PMS_P2;Temp;Humidity;BMP_temperature;BMP_pressure;BME280_temperature;BME280_humidity;BME280_pressure;Samples;Min_cycle;Max_cycle;Signal;HPM_P1;HPM_P2
2022/06/10 00:02:19;;;;;;;;;;;;;;;;;;4914785;29;8434;-83
2022/06/10 00:04:44;;;;;;;;;;;;;;;;;;4914820;29;8442;-83
2022/06/10 00:07:10;;;;;;;;;;;;;;;;;;4914551;29;8442;-83
2022/06/10 00:09:36;;;;;;;;;;;;;;;;;;4914191;29;8411;-82
2022/06/10 00:12:02;;;;;;;;;;;;;;;;;;4914701;29;8388;-82
2022/06/10 00:14:27;;;;;;;;;;;;;;;;;;4914083;29;7055;-83
2022/06/10 00:16:52;;;;;;;;;;;;;;;;;;4914466;29;7244;-83
2022/06/10 00:19:18;;;;;;;;;;;;;;;;;;4913910;29;7242;-83
2022/06/10 00:21:43;;;;;;;;;;;;;;;;;;4914429;29;7396;-83
2022/06/10 00:24:09;;;;;;;;;;;;;;;;;;4914525;29;8541;-83
2022/06/10 00:26:35;;;;;;;;;;;;;;;;;;4914012;29;8451;-83
2022/06/10 00:29:01;;;;;;;;;;;;;;;;;;4914034;29;7192;-83
2022/06/10 00:31:27;;;;;;;;;;;;;;;;;;4914201;29;8356;-83
2022/06/10 00:33:53;;;;;;;;;;;;;;;;;;4913970;29;8405;-83
2022/06/10 00:36:20;;;;;;;;;;;;;;;;;;4914634;29;7184;-83
2022/06/10 00:38:46;;;;;;;;;;;;;;;;;;4914286;29;8837;-82
2022/06/10 00:41:13;;;;;;;;;;;;;;;;;;4913839;29;7056;-83
2022/06/10 00:43:39;;;;;;;;;;;;;;;;;;4913841;29;7184;-83
2022/06/10 00:46:20;;;;;;;;;;;;;;;;;;4913770;29;7040;-83
2022/06/10 00:48:54;;;;;;;;;;;;;;;;;;4914815;29;8839;-83
2022/06/10 00:51:24;;;;;;;;;;;;;;;;;;4913872;29;7385;-83
2022/06/10 00:53:54;;;;;;;;;;;;;;;;;;4914515;29;8472;-83
2022/06/10 00:56:23;;;;;;;;;;;;;;;;;;4913652;29;8706;-83
2022/06/10 00:58:55;;;;;;;;;;;;;;;;;;4914005;29;8683;-83
2022/06/10 01:01:22;;;;;;;;;;;;;;;;;;4914475;29;8322;-83
2022/06/10 01:03:48;;;;;;;;;;;;;;;;;;4913668;29;7174;-82
2022/06/10 01:06:14;;;;;;;;;;;;;;;;;;4914640;29;8529;-82
2022/06/10 01:08:42;;;;;;;;;;;;;;;;;;4913458;29;8439;-83
2022/06/10 01:11:14;;;;;;;;;;;;;;;;;;4913730;29;8348;-82
2022/06/10 01:13:42;;;;;;;;;;;;;;;;;;4897847;29;7079;-82
2022/06/10 01:16:17;;;;;;;;;;;;;;;;;;4898470;29;7112;-83
2022/06/10 01:18:54;;;;;;;;;;;;;;;;;;4897938;29;7173;-83
2022/06/10 01:21:38;;;;;;;;;;;;;;;;;;4914168;29;7064;-83
2022/06/10 01:24:10;;;;;;;;;;;;;;;;;;4898003;29;8484;-82
2022/06/10 01:29:41;;;;;;;;;;;;;;;;;;4899023;29;6963;-83
2022/06/10 01:32:13;;;;;;;;;;;;;;;;;;4900243;29;8775;-83
2022/06/10 01:34:50;;;;;;;;;;;;;;;;;;4917218;29;7080;-83
2022/06/10 01:37:17;;;;;;;;;;;;;;;;;;4917122;29;8748;-82
2022/06/10 01:39:46;;;;;;;;;;;;;;;;;;4901039;29;6980;-82
2022/06/10 01:42:20;;;;;;;;;;;;;;;;;;4900827;29;8785;-82
2022/06/10 01:44:54;;;;;;;;;;;;;;;;;;4917371;29;8300;-83
2022/06/10 01:47:31;;;;;;;;;;;;;;;;;;4901434;29;6960;-82
2022/06/10 01:50:17;;;;;;;;;;;;;;;;;;4917576;29;7163;-82
2022/06/10 01:52:52;;;;;;;;;;;;;;;;;;4901386;29;8409;-82
2022/06/10 01:55:22;;;;;;;;;;;;;;;;;;4916470;29;7120;-83
2022/06/10 01:57:55;;;;;;;;;;;;;;;;;;4916806;29;8449;-82
2022/06/10 02:00:25;;;;;;;;;;;;;;;;;;4916746;29;7405;-82
2022/06/10 02:02:59;;;;;;;;;;;;;;;;;;4916774;29;7056;-82
2022/06/10 02:05:28;;;;;;;;;;;;;;;;;;4916624;29;8735;-83
2022/06/10 02:08:02;;;;;;;;;;;;;;;;;;4916347;29;7070;-83
2022/06/10 02:10:32;;;;;;;;;;;;;;;;;;4916968;29;7262;-83
2022/06/10 02:13:06;;;;;;;;;;;;;;;;;;4916425;29;9021;-83
2022/06/10 02:15:38;;;;;;;;;;;;;;;;;;4916860;29;7230;-82
2022/06/10 02:18:08;;;;;;;;;;;;;;;;;;4916109;29;8405;-83
2022/06/10 02:20:37;;;;;;;;;;;;;;;;;;4916625;29;8900;-82
2022/06/10 02:23:06;;;;;;;;;;;;;;;;;;4916278;29;7281;-82
2022/06/10 02:25:38;;;;;;;;;;;;;;;;;;4916264;29;8603;-83
2022/06/10 02:28:07;;;;;;;;;;;;;;;;;;4915778;29;8305;-83
2022/06/10 02:30:36;;;;;;;;;;;;;;;;;;4916185;29;8532;-83
2022/06/10 02:33:02;;;;;;;;;;;;;;;;;;4915867;29;7194;-83
2022/06/10 02:35:35;;;;;;;;;;;;;;;;;;4915828;29;7171;-83
2022/06/10 02:38:09;;;;;;;;;;;;;;;;;;4914912;29;7204;-83
2022/06/10 02:40:53;;;;;;;;;;;;;;;;;;4915888;29;7052;-82
2022/06/10 02:43:24;;;;;;;;;;;;;;;;;;4915476;29;7191;-82
2022/06/10 02:45:53;;;;;;;;;;;;;;;;;;4900308;29;7095;-83
2022/06/10 02:48:31;;;;;;;;;;;;;;;;;;4899821;29;7087;-83
2022/06/10 02:50:57;;;;;;;;;;;;;;;;;;4916119;29;7187;-83
2022/06/10 02:53:23;;;;;;;;;;;;;;;;;;4915384;29;8453;-83
2022/06/10 02:55:49;;;;;;;;;;;;;;;;;;4916105;29;7079;-83
2022/06/10 03:01:20;;;;;;;;;;;;;;;;;;4900764;29;6944;-83
2022/06/10 03:04:01;;;;;;;;;;;;;;;;;;4915426;29;8442;-83
2022/06/10 03:06:29;;;;;;;;;;;;;;;;;;4899791;29;8561;-83
2022/06/10 03:09:09;;;;;;;;;;;;;;;;;;4899812;29;8338;-83
2022/06/10 03:11:34;;;;;;;;;;;;;;;;;;4899376;29;9168;-82
2022/06/10 03:14:12;;;;;;;;;;;;;;;;;;4899431;29;8321;-83
2022/06/10 03:16:37;;;;;;;;;;;;;;;;;;4899286;29;7054;-83
2022/06/10 03:19:15;;;;;;;;;;;;;;;;;;4899211;29;8453;-82
2022/06/10 03:21:41;;;;;;;;;;;;;;;;;;4899963;29;7264;-82
2022/06/10 03:24:20;;;;;;;;;;;;;;;;;;4899374;29;8411;-82
2022/06/10 03:27:04;;;;;;;;;;;;;;;;;;4915360;29;8339;-83
2022/06/10 03:29:30;;;;;;;;;;;;;;;;;;4899004;29;7090;-82
2022/06/10 03:32:02;;;;;;;;;;;;;;;;;;4899278;29;7096;-83
2022/06/10 03:34:37;;;;;;;;;;;;;;;;;;4914935;29;8740;-82
2022/06/10 03:37:06;;;;;;;;;;;;;;;;;;4914773;29;7364;-83
2022/06/10 03:39:32;;;;;;;;;;;;;;;;;;4915064;29;8753;-83
2022/06/10 03:42:04;;;;;;;;;;;;;;;;;;4914162;29;8452;-82
2022/06/10 03:44:31;;;;;;;;;;;;;;;;;;4899030;29;8786;-83
2022/06/10 03:46:57;;;;;;;;;;;;;;;;;;4914969;29;8527;-83
2022/06/10 03:49:41;;;;;;;;;;;;;;;;;;4914624;29;7420;-83
2022/06/10 03:52:12;;;;;;;;;;;;;;;;;;4914711;29;8457;-83
2022/06/10 03:54:37;;;;;;;;;;;;;;;;;;4913732;29;7200;-83
2022/06/10 03:57:03;;;;;;;;;;;;;;;;;;4914344;29;7180;-83
2022/06/10 03:59:29;;;;;;;;;;;;;;;;;;4914721;29;8436;-83
2022/06/10 04:01:54;;;;;;;;;;;;;;;;;;4914548;29;8692;-83
2022/06/10 04:04:19;;;;;;;;;;;;;;;;;;4914757;29;7387;-83
2022/06/10 04:06:45;;;;;;;;;;;;;;;;;;4914607;29;8443;-83
2022/06/10 04:09:13;;;;;;;;;;;;;;;;;;4914016;29;8397;-83
2022/06/10 04:11:39;;;;;;;;;;;;;;;;;;4907339;29;9001;-83
2022/06/10 04:14:04;;;;;;;;;;;;;;;;;;4896530;29;8788;-83
2022/06/10 04:16:30;;;;;;;;;;;;;;;;;;4897157;29;7168;-83
2022/06/10 04:18:56;;;;;;;;;;;;;;;;;;4897687;29;7109;-83
2022/06/10 04:21:21;;;;;;;;;;;;;;;;;;4897278;29;7187;-83
2022/06/10 04:23:47;;;;;;;;;;;;;;;;;;4896579;29;7038;-83
2022/06/10 04:26:12;;;;;;;;;;;;;;;;;;4897299;29;7287;-83
2022/06/10 04:28:37;;;;;;;;;;;;;;;;;;4898348;29;7069;-82
2022/06/10 04:31:03;;;;;;;;;;;;;;;;;;4913669;29;8423;-84
2022/06/10 04:33:29;;;;;;;;;;;;;;;;;;4914219;29;7031;-83
2022/06/10 04:35:54;;;;;;;;;;;;;;;;;;4914267;29;8491;-83
2022/06/10 04:38:21;;;;;;;;;;;;;;;;;;4911257;29;8779;-83
2022/06/10 04:40:48;;;;;;;;;;;;;;;;;;4914091;29;8934;-83
2022/06/10 04:43:14;;;;;;;;;;;;;;;;;;4913740;29;7258;-83
2022/06/10 04:45:44;;;;;;;;;;;;;;;;;;4914231;29;7008;-84
2022/06/10 04:48:11;;;;;;;;;;;;;;;;;;4913787;29;7105;-83
2022/06/10 04:50:37;;;;;;;;;;;;;;;;;;4914331;29;8419;-84
2022/06/10 04:53:02;;;;;;;;;;;;;;;;;;4914031;29;8341;-84
2022/06/10 04:55:28;;;;;;;;;;;;;;;;;;4825150;29;11988;-81
2022/06/10 04:57:54;;;;;;;;;;;;;;;;;;4895144;29;7121;-83
2022/06/10 05:00:22;;;;;;;;;;;;;;;;;;4895873;29;7565;-83
2022/06/10 05:02:48;;;;;;;;;;;;;;;;;;4894453;29;7278;-83
2022/06/10 05:05:14;;;;;;;;;;;;;;;;;;4898028;29;8485;-84
2022/06/10 05:07:39;;;;;;;;;;;;;;;;;;4899495;29;8518;-84
2022/06/10 05:10:05;;;;;;;;;;;;;;;;;;4898751;29;8525;-78
2022/06/10 05:12:31;;;;;;;;;;;;;;;;;;4893815;29;7455;-83
2022/06/10 05:14:56;;;;;;;;;;;;;;;;;;4899918;29;8493;-83
2022/06/10 05:17:22;;;;;;;;;;;;;;;;;;4899134;29;8420;-84
2022/06/10 05:19:47;;;;;;;;;;;;;;;;;;4898197;29;7091;-84
2022/06/10 05:22:16;;;;;;;;;;;;;;;;;;4914999;29;7181;-81
2022/06/10 05:24:42;;;;;;;;;;;;;;;;;;4896934;29;8513;-83
2022/06/10 05:27:08;;;;;;;;;;;;;;;;;;4902691;29;7095;-78
2022/06/10 05:29:34;;;;;;;;;;;;;;;;;;4901202;29;8449;-79
2022/06/10 05:32:00;;;;;;;;;;;;;;;;;;4900885;29;6886;-81
2022/06/10 05:37:10;;;;;;;;;;;;;;;;;;4900736;29;7016;-83
2022/06/10 05:39:35;;;;;;;;;;;;;;;;;;4899154;29;8446;-83
2022/06/10 05:42:06;;;;;;;;;;;;;;;;;;4898882;29;8433;-79
2022/06/10 05:44:43;;;;;;;;;;;;;;;;;;4899106;29;7172;-80
2022/06/10 05:47:11;;;;;;;;;;;;;;;;;;4898547;29;8492;-79
2022/06/10 05:49:38;;;;;;;;;;;;;;;;;;4896773;29;8471;-83
2022/06/10 05:52:06;;;;;;;;;;;;;;;;;;4899124;29;8482;-82
2022/06/10 05:54:32;;;;;;;;;;;;;;;;;;4898382;29;7108;-83
2022/06/10 05:56:58;;;;;;;;;;;;;;;;;;4898418;29;8502;-81
2022/06/10 05:59:23;;;;;;;;;;;;;;;;;;4897259;29;7414;-82
2022/06/10 06:01:49;;;;;;;;;;;;;;;;;;4898756;29;7107;-83
2022/06/10 06:04:14;;;;;;;;;;;;;;;;;;4898452;29;7336;-81
2022/06/10 06:06:41;;;;;;;;;;;;;;;;;;4898274;29;8511;-82
2022/06/10 06:09:07;;;;;;;;;;;;;;;;;;4894264;29;7248;-82
2022/06/10 06:11:33;;;;;;;;;;;;;;;;;;4899629;29;9528;-82
2022/06/10 06:13:58;;;;;;;;;;;;;;;;;;4899382;29;7213;-83
2022/06/10 06:16:23;;;;;;;;;;;;;;;;;;4898743;29;8477;-84
2022/06/10 06:18:50;;;;;;;;;;;;;;;;;;4899830;29;7238;-84
2022/06/10 06:21:15;;;;;;;;;;;;;;;;;;4899366;29;7236;-83
2022/06/10 06:23:41;;;;;;;;;;;;;;;;;;4899672;29;8552;-83
2022/06/10 06:26:06;;;;;;;;;;;;;;;;;;4899452;29;7103;-83
2022/06/10 06:28:32;;;;;;;;;;;;;;;;;;4899043;29;8368;-83
2022/06/10 06:30:57;;;;;;;;;;;;;;;;;;4899146;29;8415;-84
2022/06/10 06:33:23;;;;;;;;;;;;;;;;;;4899498;29;8507;-83
2022/06/10 06:35:51;;;;;;;;;;;;;;;;;;4899343;29;8560;-83
2022/06/10 06:38:17;;;;;;;;;;;;;;;;;;4899364;29;8602;-84
2022/06/10 06:40:43;;;;;;;;;;;;;;;;;;4899383;29;7324;-85
2022/06/10 06:43:09;;;;;;;;;;;;;;;;;;4898564;29;7345;-85
2022/06/10 06:45:36;;;;;;;;;;;;;;;;;;4898780;29;8475;-85
2022/06/10 06:48:10;;;;;;;;;;;;;;;;;;4899385;29;7222;-85
2022/06/10 06:50:39;;;;;;;;;;;;;;;;;;4862107;29;12035;-84
2022/06/10 06:53:05;;;;;;;;;;;;;;;;;;4895930;29;7270;-85
2022/06/10 06:55:30;;;;;;;;;;;;;;;;;;4897648;29;9404;-85
2022/06/10 06:57:56;;;;;;;;;;;;;;;;;;4914309;29;8438;-85
2022/06/10 07:00:21;;;;;;;;;;;;;;;;;;4914613;29;8495;-84
2022/06/10 07:02:47;;;;;;;;;;;;;;;;;;4914300;29;8641;-85
2022/06/10 07:05:13;;;;;;;;;;;;;;;;;;4914611;29;7171;-84
2022/06/10 07:07:39;;;;;;;;;;;;;;;;;;4914259;29;7231;-84
2022/06/10 07:10:06;;;;;;;;;;;;;;;;;;4914784;29;6885;-85
2022/06/10 07:12:31;;;;;;;;;;;;;;;;;;4914182;29;8564;-85
2022/06/10 07:14:57;;;;;;;;;;;;;;;;;;4908596;29;7595;-86
2022/06/10 07:17:23;;;;;;;;;;;;;;;;;;4895725;29;7269;-84
2022/06/10 07:19:50;;;;;;;;;;;;;;;;;;4898059;29;7192;-85
2022/06/10 07:22:15;;;;;;;;;;;;;;;;;;4912801;29;8910;-85
2022/06/10 07:24:41;;;;;;;;;;;;;;;;;;4912787;29;8353;-85
2022/06/10 07:27:07;;;;;;;;;;;;;;;;;;4913883;29;8543;-84
2022/06/10 07:29:32;;;;;;;;;;;;;;;;;;4913536;29;8467;-84
2022/06/10 07:31:58;;;;;;;;;;;;;;;;;;4913977;29;8477;-84
2022/06/10 07:34:23;;;;;;;;;;;;;;;;;;4914173;29;8513;-85
2022/06/10 07:36:49;;;;;;;;;;;;;;;;;;4913424;29;8747;-84
2022/06/10 07:39:14;;;;;;;;;;;;;;;;;;4914293;29;8446;-84
2022/06/10 07:42:00;;;;;;;;;;;;;;;;;;4914009;29;7104;-84
2022/06/10 07:44:27;;;;;;;;;;;;;;;;;;4913862;29;8409;-84
2022/06/10 07:46:54;;;;;;;;;;;;;;;;;;4895070;29;8385;-84
2022/06/10 07:49:21;;;;;;;;;;;;;;;;;;4899005;29;8505;-85
2022/06/10 07:51:48;;;;;;;;;;;;;;;;;;4899257;29;7648;-84
2022/06/10 07:54:14;;;;;;;;;;;;;;;;;;4898860;29;8485;-85
2022/06/10 07:56:41;;;;;;;;;;;;;;;;;;4898401;29;7103;-84
2022/06/10 07:59:07;;;;;;;;;;;;;;;;;;4899010;29;8781;-84
2022/06/10 08:01:33;;;;;;;;;;;;;;;;;;4898505;29;8599;-84
2022/06/10 08:03:59;;;;;;;;;;;;;;;;;;4898639;29;7278;-84
2022/06/10 08:06:27;;;;;;;;;;;;;;;;;;4899462;29;8447;-84
2022/06/10 08:08:53;;;;;;;;;;;;;;;;;;4898866;29;7244;-84
2022/06/10 08:11:19;;;;;;;;;;;;;;;;;;4898783;29;6982;-84
2022/06/10 08:13:45;;;;;;;;;;;;;;;;;;4898372;29;7128;-84
2022/06/10 08:16:11;;;;;;;;;;;;;;;;;;4898224;29;7260;-84
2022/06/10 08:18:37;;;;;;;;;;;;;;;;;;4898052;29;8676;-84
2022/06/10 08:23:48;;;;;;;;;;;;;;;;;;4899689;29;6973;-84
2022/06/10 08:26:14;;;;;;;;;;;;;;;;;;4898716;29;8476;-84
2022/06/10 08:28:43;;;;;;;;;;;;;;;;;;4898267;29;8766;-85
2022/06/10 08:31:09;;;;;;;;;;;;;;;;;;4898463;29;8626;-84
2022/06/10 08:33:35;;;;;;;;;;;;;;;;;;4898968;29;8189;-84
2022/06/10 08:36:01;;;;;;;;;;;;;;;;;;4898313;29;8460;-85
2022/06/10 08:38:27;;;;;;;;;;;;;;;;;;4898764;29;7218;-84
2022/06/10 08:40:55;;;;;;;;;;;;;;;;;;4900798;29;8454;-84
2022/06/10 08:43:30;;;;;;;;;;;;;;;;;;4901721;29;7126;-84
2022/06/10 08:46:14;;;;;;;;;;;;;;;;;;4902625;29;7118;-84
2022/06/10 08:48:45;;;;;;;;;;;;;;;;;;4901930;29;8747;-82
2022/06/10 08:51:30;;;;;;;;;;;;;;;;;;4901896;29;8626;-83
2022/06/10 08:53:58;;;;;;;;;;;;;;;;;;4902438;29;8394;-84
2022/06/10 08:56:31;;;;;;;;;;;;;;;;;;4901650;29;9400;-83
2022/06/10 08:59:01;;;;;;;;;;;;;;;;;;4902125;29;8509;-83
2022/06/10 09:01:30;;;;;;;;;;;;;;;;;;4901635;29;8481;-84
2022/06/10 09:04:21;;;;;;;;;;;;;;;;;;4901663;29;8523;-84
2022/06/10 09:06:51;;;;;;;;;;;;;;;;;;4902149;29;8415;-84
2022/06/10 09:09:20;;;;;;;;;;;;;;;;;;4901076;29;7148;-83
2022/06/10 09:11:51;;;;;;;;;;;;;;;;;;4901302;29;8537;-84
2022/06/10 09:14:27;;;;;;;;;;;;;;;;;;4900886;29;7476;-84
2022/06/10 09:17:03;;;;;;;;;;;;;;;;;;4901308;29;8715;-84
2022/06/10 09:19:47;;;;;;;;;;;;;;;;;;4866247;29;12090;-85
2022/06/10 09:22:31;;;;;;;;;;;;;;;;;;4882942;29;8789;-86
2022/06/10 09:25:06;;;;;;;;;;;;;;;;;;4882249;29;7112;-84
2022/06/10 09:27:55;;;;;;;;;;;;;;;;;;4882816;29;9722;-85
2022/06/10 09:30:27;;;;;;;;;;;;;;;;;;4882495;29;8552;-84
2022/06/10 09:32:59;;;;;;;;;;;;;;;;;;4882242;29;7256;-86
2022/06/10 09:35:25;;;;;;;;;;;;;;;;;;4882218;29;7215;-85
2022/06/10 09:37:56;;;;;;;;;;;;;;;;;;4881987;29;6927;-77
2022/06/10 09:40:38;;;;;;;;;;;;;;;;;;4882291;29;8455;-77
2022/06/10 09:43:07;;;;;;;;;;;;;;;;;;4882106;29;7283;-85
2022/06/10 09:45:32;;;;;;;;;;;;;;;;;;4882406;29;7149;-85
2022/06/10 09:47:58;;;;;;;;;;;;;;;;;;4882477;29;8766;-84
2022/06/10 09:50:38;;;;;;;;;;;;;;;;;;4882245;29;7255;-83
2022/06/10 09:53:07;;;;;;;;;;;;;;;;;;4883270;29;7271;-84
2022/06/10 09:55:51;;;;;;;;;;;;;;;;;;4896082;29;9052;-87
2022/06/10 09:58:25;;;;;;;;;;;;;;;;;;4896172;29;8568;-86
2022/06/10 10:00:57;;;;;;;;;;;;;;;;;;4897093;29;8511;-80
2022/06/10 10:03:43;;;;;;;;;;;;;;;;;;4896396;29;8497;-84
2022/06/10 10:06:17;;;;;;;;;;;;;;;;;;4896495;29;7336;-83
2022/06/10 10:09:12;;;;;;;;;;;;;;;;;;4896580;29;7151;-79
2022/06/10 10:11:38;;;;;;;;;;;;;;;;;;4892132;29;8569;-79
2022/06/10 10:14:06;;;;;;;;;;;;;;;;;;4895927;29;8468;-84
2022/06/10 10:16:35;;;;;;;;;;;;;;;;;;4896167;29;8507;-84
2022/06/10 10:19:12;;;;;;;;;;;;;;;;;;4896756;29;8524;-81
2022/06/10 10:21:47;;;;;;;;;;;;;;;;;;4899644;29;7107;-85
2022/06/10 10:24:24;;;;;;;;;;;;;;;;;;4900455;29;8542;-84
2022/06/10 10:26:51;;;;;;;;;;;;;;;;;;4900095;29;8757;-84
2022/06/10 10:29:17;;;;;;;;;;;;;;;;;;4900442;29;7143;-84
2022/06/10 10:31:52;;;;;;;;;;;;;;;;;;4898540;29;7111;-88
2022/06/10 10:34:22;;;;;;;;;;;;;;;;;;4896013;29;8827;-83
2022/06/10 10:36:58;;;;;;;;;;;;;;;;;;4897914;29;9325;-85
2022/06/10 10:39:32;;;;;;;;;;;;;;;;;;4897128;29;8558;-83
2022/06/10 10:42:24;;;;;;;;;;;;;;;;;;4897352;29;7454;-88
2022/06/10 10:44:59;;;;;;;;;;;;;;;;;;4896385;29;8548;-86
2022/06/10 10:47:26;;;;;;;;;;;;;;;;;;4897050;29;7506;-85
2022/06/10 10:49:52;;;;;;;;;;;;;;;;;;4897806;29;8554;-84
2022/06/10 10:52:20;;;;;;;;;;;;;;;;;;4897483;29;8512;-86
2022/06/10 10:54:48;;;;;;;;;;;;;;;;;;4896595;29;8536;-85
2022/06/10 10:57:21;;;;;;;;;;;;;;;;;;4897503;29;8542;-86
2022/06/10 10:59:54;;;;;;;;;;;;;;;;;;4897705;29;7154;-86
2022/06/10 11:02:25;;;;;;;;;;;;;;;;;;4896935;29;8528;-85
2022/06/10 11:04:50;;;;;;;;;;;;;;;;;;4897315;29;7124;-85
2022/06/10 11:07:19;;;;;;;;;;;;;;;;;;4897099;29;7458;-78
2022/06/10 11:09:47;;;;;;;;;;;;;;;;;;4896771;29;7468;-84
2022/06/10 11:12:16;;;;;;;;;;;;;;;;;;4896667;29;7271;-85
2022/06/10 11:14:46;;;;;;;;;;;;;;;;;;4896738;29;8587;-83
2022/06/10 11:17:12;;;;;;;;;;;;;;;;;;4899154;29;8506;-85
2022/06/10 11:19:40;;;;;;;;;;;;;;;;;;4899491;29;7102;-84
2022/06/10 11:22:09;;;;;;;;;;;;;;;;;;4899575;29;7445;-85
2022/06/10 11:24:43;;;;;;;;;;;;;;;;;;4900110;29;8414;-84
2022/06/10 11:27:26;;;;;;;;;;;;;;;;;;4899082;29;8543;-85
2022/06/10 11:30:18;;;;;;;;;;;;;;;;;;4899354;29;8911;-86
2022/06/10 11:32:55;;;;;;;;;;;;;;;;;;4897289;29;7276;-86
2022/06/10 11:35:21;;;;;;;;;;;;;;;;;;4898932;29;7523;-86
2022/06/10 11:37:49;;;;;;;;;;;;;;;;;;4899093;29;8578;-86
2022/06/10 11:40:35;;;;;;;;;;;;;;;;;;4898848;29;7248;-86
2022/06/10 11:43:05;;;;;;;;;;;;;;;;;;4898948;29;7060;-86
2022/06/10 11:46:01;;;;;;;;;;;;;;;;;;4899256;29;8515;-86
2022/06/10 11:48:46;;;;;;;;;;;;;;;;;;4890567;29;7267;-87
2022/06/10 11:51:12;;;;;;;;;;;;;;;;;;4899067;29;8835;-86
2022/06/10 11:53:40;;;;;;;;;;;;;;;;;;4900634;29;8513;-86
2022/06/10 12:02:11;;;;;;;;;;;;;;;;;;4899657;29;6908;-85
2022/06/10 12:04:43;;;;;;;;;;;;;;;;;;4899449;29;8507;-86
2022/06/10 12:07:15;;;;;;;;;;;;;;;;;;4898117;29;8910;-86
2022/06/10 12:09:45;;;;;;;;;;;;;;;;;;4897288;29;8514;-85
2022/06/10 12:12:23;;;;;;;;;;;;;;;;;;4897237;29;8556;-87
2022/06/10 12:14:55;;;;;;;;;;;;;;;;;;4896302;29;7155;-87
2022/06/10 12:17:25;;;;;;;;;;;;;;;;;;4897197;29;8454;-86
2022/06/10 12:19:57;;;;;;;;;;;;;;;;;;4897780;29;7150;-85
2022/06/10 12:22:26;;;;;;;;;;;;;;;;;;4898344;29;8551;-86
2022/06/10 12:24:53;;;;;;;;;;;;;;;;;;4898989;29;7738;-86
2022/06/10 12:27:18;;;;;;;;;;;;;;;;;;4898397;29;7368;-86
2022/06/10 12:29:49;;;;;;;;;;;;;;;;;;4898241;29;8400;-86
2022/06/10 12:32:14;;;;;;;;;;;;;;;;;;4898730;29;8778;-86
2022/06/10 12:34:39;;;;;;;;;;;;;;;;;;4897561;29;8470;-86
2022/06/10 12:37:07;;;;;;;;;;;;;;;;;;4897767;29;8525;-87
2022/06/10 12:39:42;;;;;;;;;;;;;;;;;;4897980;29;7317;-86
2022/06/10 12:42:34;;;;;;;;;;;;;;;;;;4898257;29;8566;-86
2022/06/10 12:45:03;;;;;;;;;;;;;;;;;;4895557;29;8700;-86
2022/06/10 12:47:36;;;;;;;;;;;;;;;;;;4898308;29;8503;-86
2022/06/10 12:50:16;;;;;;;;;;;;;;;;;;4898717;29;8523;-87
2022/06/10 12:53:02;;;;;;;;;;;;;;;;;;4898143;29;8564;-86
2022/06/10 12:55:37;;;;;;;;;;;;;;;;;;4879157;29;8464;-86
2022/06/10 12:58:03;;;;;;;;;;;;;;;;;;4897835;29;8649;-86
2022/06/10 13:00:40;;;;;;;;;;;;;;;;;;4897887;29;8530;-87
2022/06/10 13:03:11;;;;;;;;;;;;;;;;;;4897950;29;8552;-87
2022/06/10 13:05:37;;;;;;;;;;;;;;;;;;4897715;29;8437;-87
2022/06/10 13:08:22;;;;;;;;;;;;;;;;;;4897451;29;9244;-87
2022/06/10 13:10:54;;;;;;;;;;;;;;;;;;4897333;29;8487;-87
2022/06/10 13:13:23;;;;;;;;;;;;;;;;;;4897748;29;8794;-86
2022/06/10 13:15:51;;;;;;;;;;;;;;;;;;4897819;29;8447;-86
2022/06/10 13:18:17;;;;;;;;;;;;;;;;;;4898051;29;7243;-85
2022/06/10 13:20:44;;;;;;;;;;;;;;;;;;4897906;29;7316;-87
2022/06/10 13:23:13;;;;;;;;;;;;;;;;;;4898762;29;8549;-87
2022/06/10 13:25:39;;;;;;;;;;;;;;;;;;4898673;29;7168;-87
2022/06/10 13:28:16;;;;;;;;;;;;;;;;;;4846481;29;12039;-87
2022/06/10 13:30:42;;;;;;;;;;;;;;;;;;4901663;29;7295;-87
2022/06/10 13:33:13;;;;;;;;;;;;;;;;;;4901129;29;7363;-87
2022/06/10 13:35:45;;;;;;;;;;;;;;;;;;4901500;29;9243;-87
2022/06/10 13:38:16;;;;;;;;;;;;;;;;;;4901479;29;8847;-86
2022/06/10 13:40:47;;;;;;;;;;;;;;;;;;4901917;29;7381;-86
2022/06/10 13:43:28;;;;;;;;;;;;;;;;;;4900709;29;7390;-86
2022/06/10 13:45:54;;;;;;;;;;;;;;;;;;4900525;29;8486;-86
2022/06/10 13:48:22;;;;;;;;;;;;;;;;;;4900849;29;8413;-86
2022/06/10 13:53:53;;;;;;;;;;;;;;;;;;4901811;29;7048;-86
2022/06/10 13:56:26;;;;;;;;;;;;;;;;;;4900812;29;7257;-86
2022/06/10 13:58:53;;;;;;;;;;;;;;;;;;4900982;29;10028;-86
2022/06/10 14:01:21;;;;;;;;;;;;;;;;;;4901240;29;8404;-86
2022/06/10 14:03:50;;;;;;;;;;;;;;;;;;4900584;29;8779;-86
2022/06/10 14:06:19;;;;;;;;;;;;;;;;;;4900884;29;9122;-86
2022/06/10 14:08:48;;;;;;;;;;;;;;;;;;4900553;29;8593;-86
2022/06/10 14:11:30;;;;;;;;;;;;;;;;;;4900671;29;8936;-86
2022/06/10 14:14:00;;;;;;;;;;;;;;;;;;4900643;29;8793;-86
2022/06/10 14:16:26;;;;;;;;;;;;;;;;;;4900314;29;8411;-86
2022/06/10 14:18:54;;;;;;;;;;;;;;;;;;4900325;29;8513;-86
2022/06/10 14:21:20;;;;;;;;;;;;;;;;;;4900333;29;8750;-87
2022/06/10 14:24:05;;;;;;;;;;;;;;;;;;4899915;29;8439;-87
2022/06/10 14:26:34;;;;;;;;;;;;;;;;;;4899555;29;8691;-86
2022/06/10 14:29:23;;;;;;;;;;;;;;;;;;4900293;29;8478;-86
2022/06/10 14:32:03;;;;;;;;;;;;;;;;;;4900384;29;8629;-86
2022/06/10 14:34:29;;;;;;;;;;;;;;;;;;4900673;29;8579;-86
2022/06/10 14:36:59;;;;;;;;;;;;;;;;;;4899661;29;8517;-86
2022/06/10 14:39:26;;;;;;;;;;;;;;;;;;4900160;29;8529;-86
2022/06/10 14:41:55;;;;;;;;;;;;;;;;;;4899912;29;8706;-86
2022/06/10 14:44:24;;;;;;;;;;;;;;;;;;4899899;29;9014;-86
2022/06/10 14:47:07;;;;;;;;;;;;;;;;;;4899897;29;7292;-86
2022/06/10 14:49:42;;;;;;;;;;;;;;;;;;4899796;29;7185;-86
2022/06/10 14:52:17;;;;;;;;;;;;;;;;;;4900192;29;8808;-86
2022/06/10 14:54:42;;;;;;;;;;;;;;;;;;4899902;29;8530;-87
2022/06/10 14:57:17;;;;;;;;;;;;;;;;;;4899931;29;8565;-86
2022/06/10 14:59:42;;;;;;;;;;;;;;;;;;4899771;29;7157;-86
2022/06/10 15:02:09;;;;;;;;;;;;;;;;;;4899777;29;8413;-86
2022/06/10 15:04:34;;;;;;;;;;;;;;;;;;4899176;29;7077;-86
2022/06/10 15:07:01;;;;;;;;;;;;;;;;;;4899008;29;7296;-86
2022/06/10 15:09:27;;;;;;;;;;;;;;;;;;4899582;29;8718;-86
2022/06/10 15:11:53;;;;;;;;;;;;;;;;;;4899234;29;8678;-87
2022/06/10 15:14:19;;;;;;;;;;;;;;;;;;4899190;29;8784;-88
2022/06/10 15:16:46;;;;;;;;;;;;;;;;;;4898962;29;7274;-85
2022/06/10 15:19:13;;;;;;;;;;;;;;;;;;4898630;29;8452;-86
2022/06/10 15:21:40;;;;;;;;;;;;;;;;;;4887484;29;8577;-86
2022/06/10 15:24:06;;;;;;;;;;;;;;;;;;4879254;29;7559;-85
2022/06/10 15:26:44;;;;;;;;;;;;;;;;;;4879497;29;8537;-85
2022/06/10 15:29:13;;;;;;;;;;;;;;;;;;4879320;29;7749;-86
2022/06/10 15:31:38;;;;;;;;;;;;;;;;;;4879790;29;8903;-86
2022/06/10 15:34:04;;;;;;;;;;;;;;;;;;4878812;29;8700;-85
2022/06/10 15:42:06;;;;;;;;;;;;;;;;;;4898593;29;6930;-86
2022/06/10 15:44:34;;;;;;;;;;;;;;;;;;4897814;29;7165;-86
2022/06/10 15:47:00;;;;;;;;;;;;;;;;;;4897984;29;8425;-86
2022/06/10 15:49:27;;;;;;;;;;;;;;;;;;4897146;29;8480;-86
2022/06/10 15:52:00;;;;;;;;;;;;;;;;;;4897095;29;8843;-86
2022/06/10 15:54:26;;;;;;;;;;;;;;;;;;4898011;29;8438;-86
2022/06/10 15:57:07;;;;;;;;;;;;;;;;;;4898078;29;8512;-86
2022/06/10 15:59:34;;;;;;;;;;;;;;;;;;4897408;29;8567;-85
2022/06/10 16:02:00;;;;;;;;;;;;;;;;;;4897408;29;8696;-85
2022/06/10 16:04:27;;;;;;;;;;;;;;;;;;4915237;29;8586;-85
2022/06/10 16:06:53;;;;;;;;;;;;;;;;;;4899155;29;8389;-85
2022/06/10 16:09:20;;;;;;;;;;;;;;;;;;4898565;29;7189;-85
2022/06/10 16:12:57;;;;;;;;;;;;;;;;;;4899057;29;8681;-85
2022/06/10 16:14:38;;;;;;;;;;;;;;;;;;4899476;29;7426;-85
2022/06/10 16:17:05;;;;;;;;;;;;;;;;;;4899214;29;9673;-85
2022/06/10 16:19:31;;;;;;;;;;;;;;;;;;4898413;29;8403;-86
2022/06/10 16:21:56;;;;;;;;;;;;;;;;;;4898293;29;8577;-85
2022/06/10 16:24:22;;;;;;;;;;;;;;;;;;4898245;29;8572;-85
2022/06/10 16:26:48;;;;;;;;;;;;;;;;;;4897887;29;8477;-86
2022/06/10 16:29:18;;;;;;;;;;;;;;;;;;4898625;29;8906;-86
2022/06/10 16:31:44;;;;;;;;;;;;;;;;;;4898725;29;7190;-85
2022/06/10 16:34:13;;;;;;;;;;;;;;;;;;4898414;29;8593;-85
2022/06/10 16:36:39;;;;;;;;;;;;;;;;;;4898341;29;7181;-85
2022/06/10 16:39:05;;;;;;;;;;;;;;;;;;4898023;29;8818;-85
2022/06/10 16:41:43;;;;;;;;;;;;;;;;;;4897876;29;7232;-85
2022/06/10 16:44:15;;;;;;;;;;;;;;;;;;4898221;29;7178;-85
2022/06/10 16:46:43;;;;;;;;;;;;;;;;;;4898839;29;7176;-85
2022/06/10 16:49:23;;;;;;;;;;;;;;;;;;4898262;29;8567;-85
2022/06/10 16:51:52;;;;;;;;;;;;;;;;;;4898427;29;7190;-85
2022/06/10 16:54:17;;;;;;;;;;;;;;;;;;4898389;29;8520;-85
2022/06/10 16:56:43;;;;;;;;;;;;;;;;;;4897916;29;9059;-85
2022/06/10 16:59:14;;;;;;;;;;;;;;;;;;4899695;29;8617;-84
2022/06/10 17:01:40;;;;;;;;;;;;;;;;;;4900408;29;7300;-85
2022/06/10 17:04:08;;;;;;;;;;;;;;;;;;4901780;29;7146;-85
2022/06/10 17:06:34;;;;;;;;;;;;;;;;;;4901793;29;8515;-85
2022/06/10 17:09:00;;;;;;;;;;;;;;;;;;4901720;29;7190;-85
2022/06/10 17:11:32;;;;;;;;;;;;;;;;;;4901519;29;8399;-85
2022/06/10 17:13:58;;;;;;;;;;;;;;;;;;4901600;29;8454;-85
2022/06/10 17:16:27;;;;;;;;;;;;;;;;;;4901906;29;7325;-85
2022/06/10 17:18:53;;;;;;;;;;;;;;;;;;4901492;29;7532;-85
2022/06/10 17:21:18;;;;;;;;;;;;;;;;;;4901364;29;9835;-84
2022/06/10 17:23:45;;;;;;;;;;;;;;;;;;4901516;29;8639;-84
2022/06/10 17:26:17;;;;;;;;;;;;;;;;;;4901257;29;7358;-85
2022/06/10 17:28:44;;;;;;;;;;;;;;;;;;4901411;29;8943;-85
2022/06/10 17:31:12;;;;;;;;;;;;;;;;;;4901940;29;8571;-85
2022/06/10 17:33:42;;;;;;;;;;;;;;;;;;4901210;29;7288;-85
2022/06/10 17:36:10;;;;;;;;;;;;;;;;;;4901211;29;8558;-85
2022/06/10 17:38:37;;;;;;;;;;;;;;;;;;4901413;29;8970;-85
2022/06/10 17:41:14;;;;;;;;;;;;;;;;;;4900970;29;8875;-84
2022/06/10 17:43:43;;;;;;;;;;;;;;;;;;4901243;29;8575;-85
2022/06/10 17:46:23;;;;;;;;;;;;;;;;;;4901145;29;8454;-85
2022/06/10 17:48:49;;;;;;;;;;;;;;;;;;4900713;29;8609;-84